Time;durP1;ratioP1;P1;durP2;ratioP2;P2;SDS_P1;SDS_P2;PMS_P1;PMS_P2;Temp;Humidity;BMP_temperature;BMP_pressure;BME280_temperature;BME280_humidity;BME280_pressure;Samples;Min_cycle;Max_cycle;Signal;HPM_P1;HPM_P2
2022/12/14 00:00:47;;;;;;;26.63;14.15;;;-4.20;99.90;;;;;;4973881;28;20030;-79
2022/12/14 00:03:13;;;;;;;28.13;14.35;;;-4.20;99.90;;;;;;4958214;28;20034;-78
2022/12/14 00:05:39;;;;;;;29.25;13.73;;;-4.10;99.90;;;;;;4954950;28;20026;-78
2022/12/14 00:08:05;;;;;;;26.63;13.35;;;-4.10;99.90;;;;;;4973721;28;20057;-78
2022/12/14 00:10:31;;;;;;;28.77;13.48;;;-4.10;99.90;;;;;;4956589;28;20088;-78
2022/12/14 00:12:57;;;;;;;31.45;14.55;;;-4.10;99.90;;;;;;4970071;28;20170;-78
2022/12/14 00:15:22;;;;;;;26.95;13.85;;;-4.10;99.90;;;;;;4976038;28;20557;-79
2022/12/14 00:17:48;;;;;;;28.73;13.32;;;-4.20;99.90;;;;;;4955233;28;20546;-78
2022/12/14 00:20:13;;;;;;;25.23;12.65;;;-4.10;99.90;;;;;;4958654;28;20038;-78
2022/12/14 00:22:39;;;;;;;23.60;12.35;;;-4.00;99.90;;;;;;4972532;28;20046;-78
2022/12/14 00:25:05;;;;;;;29.80;12.75;;;-3.90;99.90;;;;;;4940759;28;20177;-79
2022/12/14 00:27:31;;;;;;;25.30;12.52;;;-3.90;99.90;;;;;;4954067;28;20043;-78
2022/12/14 00:29:57;;;;;;;26.92;12.63;;;-4.00;99.90;;;;;;4956790;28;20033;-78
2022/12/14 00:32:22;;;;;;;25.42;12.00;;;-4.10;99.90;;;;;;4958274;28;20034;-78
2022/12/14 00:34:48;;;;;;;26.05;12.50;;;-4.10;99.90;;;;;;4985705;28;20030;-79
2022/12/14 00:37:14;;;;;;;23.20;11.45;;;-4.10;99.90;;;;;;4970832;28;20046;-78
2022/12/14 00:39:39;;;;;;;27.30;12.25;;;-4.10;99.90;;;;;;4938755;28;20101;-78
2022/12/14 00:42:06;;;;;;;22.77;11.70;;;-4.10;99.90;;;;;;4968508;28;20437;-78
2022/12/14 00:44:32;;;;;;;26.27;12.10;;;-4.10;99.90;;;;;;4971759;28;20032;-78
2022/12/14 00:46:57;;;;;;;23.52;12.68;;;-4.10;99.90;;;;;;4976955;28;20394;-79
2022/12/14 00:49:23;;;;;;;26.70;11.88;;;-4.10;99.90;;;;;;4957061;28;20028;-78
2022/12/14 00:51:48;;;;;;;20.90;10.70;;;-4.10;99.90;;;;;;4993881;28;20043;-79
2022/12/14 00:54:15;;;;;;;23.35;11.88;;;-4.20;99.90;;;;;;4971605;28;20040;-78
2022/12/14 00:56:40;;;;;;;25.23;11.57;;;-4.20;99.90;;;;;;4948815;28;20509;-79
2022/12/14 00:59:06;;;;;;;23.42;11.18;;;-4.20;99.90;;;;;;4956701;28;20030;-78
2022/12/14 01:01:31;;;;;;;20.80;10.73;;;-4.20;99.90;;;;;;4955032;28;20066;-79
2022/12/14 01:04:15;;;;;;;23.65;12.27;;;-4.20;99.90;;;;;;4955362;28;20056;-79
2022/12/14 01:06:59;;;;;;;17.80;10.73;;;-4.20;99.90;;;;;;4974465;28;20062;-78
2022/12/14 01:09:25;;;;;;;27.83;11.05;;;-4.20;99.90;;;;;;4954314;28;20514;-79
2022/12/14 01:11:52;;;;;;;19.80;10.93;;;-4.30;99.90;;;;;;4970170;28;20042;-78
2022/12/14 01:14:18;;;;;;;20.60;11.02;;;-4.30;99.90;;;;;;4969668;28;20076;-78
2022/12/14 01:16:43;;;;;;;25.58;12.35;;;-4.30;99.90;;;;;;4972178;28;20061;-78
2022/12/14 01:19:10;;;;;;;26.88;11.27;;;-4.40;99.90;;;;;;4970449;28;20411;-78
2022/12/14 01:21:35;;;;;;;19.42;10.30;;;-4.30;99.90;;;;;;4970662;28;20034;-79
2022/12/14 01:24:02;;;;;;;22.27;11.13;;;-4.30;99.90;;;;;;4971819;28;20068;-78
2022/12/14 01:26:29;;;;;;;21.27;11.20;;;-4.40;99.90;;;;;;4960271;28;20097;-79
2022/12/14 01:28:56;;;;;;;17.52;9.73;;;-4.50;99.90;;;;;;4971266;28;20117;-79
2022/12/14 01:31:23;;;;;;;22.85;10.45;;;-4.50;99.90;;;;;;4974067;28;20113;-78
2022/12/14 01:33:48;;;;;;;18.02;10.50;;;-4.40;99.90;;;;;;4970119;28;20548;-78
2022/12/14 01:36:15;;;;;;;20.42;9.38;;;-4.50;99.90;;;;;;4985083;28;20038;-78
2022/12/14 01:38:41;;;;;;;18.67;10.27;;;-4.50;99.90;;;;;;4968260;28;20038;-78
2022/12/14 01:41:07;;;;;;;21.70;10.82;;;-4.50;99.90;;;;;;4938675;28;20034;-78
2022/12/14 01:43:47;;;;;;;18.25;9.20;;;-4.40;99.90;;;;;;4968957;28;20367;-78
2022/12/14 01:46:13;;;;;;;17.55;9.70;;;-4.40;99.90;;;;;;4937951;28;20083;-78
2022/12/14 01:48:38;;;;;;;18.95;8.90;;;-4.40;99.90;;;;;;4952319;28;20517;-78
2022/12/14 01:51:05;;;;;;;19.80;10.43;;;-4.30;99.90;;;;;;4953660;28;20035;-77
2022/12/14 01:53:30;;;;;;;21.00;9.82;;;-4.40;99.90;;;;;;4970233;28;20054;-78
2022/12/14 01:55:56;;;;;;;17.33;9.20;;;-4.40;99.90;;;;;;4968406;28;20121;-78
2022/12/14 01:58:22;;;;;;;20.15;8.73;;;-4.40;99.90;;;;;;4986511;28;20093;-78
2022/12/14 02:00:49;;;;;;;20.10;9.18;;;-4.30;99.90;;;;;;4986064;28;20494;-78
2022/12/14 02:03:32;;;;;;;17.42;9.00;;;-4.40;99.90;;;;;;4969806;28;20374;-78
2022/12/14 02:06:11;;;;;;;17.67;9.95;;;-4.40;99.90;;;;;;4952760;28;20026;-78
2022/12/14 02:08:36;;;;;;;20.13;9.68;;;-4.40;99.90;;;;;;4967217;28;20057;-78
2022/12/14 02:11:02;;;;;;;18.40;9.50;;;-4.40;99.90;;;;;;4971202;28;20022;-78
2022/12/14 02:13:32;;;;;;;19.33;9.70;;;-4.50;99.90;;;;;;4969197;28;20042;-78
2022/12/14 02:15:57;;;;;;;17.92;8.32;;;-4.50;99.90;;;;;;4983236;28;20391;-77
2022/12/14 02:18:28;;;;;;;17.50;9.00;;;-4.40;99.90;;;;;;4987223;28;20034;-78
2022/12/14 02:21:17;;;;;;;13.65;8.27;;;-4.40;99.90;;;;;;4951752;28;20472;-78
2022/12/14 02:24:20;;;;;;;19.52;10.57;;;-4.40;99.90;;;;;;4969255;28;20133;-78
2022/12/14 02:27:03;;;;;;;20.02;10.02;;;-4.50;99.90;;;;;;4986311;28;20521;-78
2022/12/14 02:29:33;;;;;;;17.92;9.18;;;-4.50;99.90;;;;;;4971367;28;20402;-78
2022/12/14 02:32:08;;;;;;;17.85;9.27;;;-4.40;99.90;;;;;;4982876;28;20033;-78
2022/12/14 02:34:50;;;;;;;17.17;8.88;;;-4.50;99.90;;;;;;4984785;28;20035;-78
2022/12/14 02:37:23;;;;;;;17.13;8.90;;;-4.50;99.90;;;;;;4984551;28;20022;-78
2022/12/14 02:40:12;;;;;;;18.38;8.77;;;-4.60;99.90;;;;;;4986767;28;20109;-77
2022/12/14 02:42:45;;;;;;;19.17;8.55;;;-4.60;99.90;;;;;;4957876;28;20096;-78
2022/12/14 02:45:23;;;;;;;20.30;9.63;;;-4.60;99.90;;;;;;4971551;28;20125;-78
2022/12/14 02:47:53;;;;;;;15.93;8.35;;;-4.50;99.90;;;;;;4956553;28;25194;-78
2022/12/14 02:50:21;;;;;;;17.27;8.68;;;-4.50;99.90;;;;;;4973306;28;20106;-78
2022/12/14 02:53:21;;;;;;;18.98;9.68;;;-4.50;99.90;;;;;;4988844;28;20495;-78
2022/12/14 02:55:50;;;;;;;14.93;9.02;;;-4.70;99.90;;;;;;4948593;28;20030;-78
2022/12/14 02:58:27;;;;;;;15.30;8.50;;;-4.70;99.90;;;;;;4955991;28;20038;-78
2022/12/14 03:00:54;;;;;;;17.75;8.77;;;-4.70;99.90;;;;;;4981060;28;20093;-78
2022/12/14 03:03:19;;;;;;;16.83;8.20;;;-4.70;99.90;;;;;;4988235;28;20839;-78
2022/12/14 03:05:55;;;;;;;14.20;7.38;;;-4.60;99.90;;;;;;4972838;28;20113;-78
2022/12/14 03:08:20;;;;;;;20.23;8.73;;;-4.60;99.90;;;;;;4972217;28;20034;-77
2022/12/14 03:10:54;;;;;;;15.48;8.75;;;-4.60;99.90;;;;;;4985780;28;20038;-78
2022/12/14 03:14:09;;;;;;;16.33;8.30;;;-4.70;99.90;;;;;;4968291;28;20611;-77
2022/12/14 03:16:41;;;;;;;17.80;8.55;;;-4.70;99.90;;;;;;4979441;28;20498;-78
2022/12/14 03:19:17;;;;;;;16.88;8.13;;;-4.70;99.90;;;;;;4943099;28;20089;-77
2022/12/14 03:21:46;;;;;;;15.43;7.53;;;-4.80;99.90;;;;;;4988317;28;20069;-78
2022/12/14 03:24:13;;;;;;;17.23;7.57;;;-4.80;99.90;;;;;;4940809;28;20050;-78
2022/12/14 03:26:55;;;;;;;15.68;7.65;;;-4.70;99.90;;;;;;4939504;28;20030;-78
2022/12/14 03:29:26;;;;;;;14.80;7.68;;;-4.60;99.90;;;;;;4971899;28;20512;-78
2022/12/14 03:31:53;;;;;;;13.98;7.75;;;-4.60;99.90;;;;;;4973311;28;20088;-78
2022/12/14 03:34:20;;;;;;;14.70;7.15;;;-4.60;99.90;;;;;;4986532;28;20117;-77
2022/12/14 03:36:51;;;;;;;15.88;9.00;;;-4.60;99.90;;;;;;4987118;28;20077;-78
2022/12/14 03:39:20;;;;;;;14.50;7.82;;;-4.70;99.90;;;;;;4972694;28;20490;-78
2022/12/14 03:42:10;;;;;;;15.80;8.13;;;-4.70;99.90;;;;;;4972179;28;20357;-78
2022/12/14 03:44:35;;;;;;;14.57;7.45;;;-4.60;99.90;;;;;;4945399;28;20038;-78
2022/12/14 03:47:04;;;;;;;15.00;7.68;;;-4.70;99.90;;;;;;4988942;28;20145;-78
2022/12/14 03:49:52;;;;;;;14.65;7.20;;;-4.70;99.90;;;;;;4988154;28;20042;-78
2022/12/14 03:52:31;;;;;;;14.93;7.00;;;-4.70;99.90;;;;;;4986868;28;20037;-78
2022/12/14 03:55:06;;;;;;;10.48;6.35;;;-4.70;99.90;;;;;;4988699;28;20412;-78
2022/12/14 03:57:49;;;;;;;13.63;7.30;;;-4.60;99.90;;;;;;4986553;28;20030;-77
2022/12/14 04:00:22;;;;;;;14.40;6.90;;;-4.60;99.90;;;;;;4987775;28;20038;-78
2022/12/14 04:03:07;;;;;;;15.45;6.57;;;-4.60;99.90;;;;;;4971882;28;20379;-78
2022/12/14 04:05:38;;;;;;;12.35;6.75;;;-4.60;99.90;;;;;;4955476;28;20031;-78
2022/12/14 04:08:11;;;;;;;14.85;7.72;;;-4.50;99.90;;;;;;4972360;28;20071;-78
2022/12/14 04:19:03;;;;;;;13.75;7.07;;;-4.50;99.90;;;;;;4962525;28;20445;-77
2022/12/14 04:21:39;;;;;;;15.25;8.40;;;-4.40;99.90;;;;;;4969980;28;20039;-78
2022/12/14 04:27:16;;;;;;;13.05;6.68;;;-4.30;99.90;;;;;;4985980;28;20044;-78
2022/12/14 04:29:57;;;;;;;15.27;7.65;;;-4.20;99.90;;;;;;4969878;28;20050;-77
2022/12/14 04:32:41;;;;;;;15.65;7.68;;;-4.20;99.90;;;;;;4986333;28;20038;-78
2022/12/14 04:35:12;;;;;;;13.32;7.70;;;-4.20;99.90;;;;;;4970638;28;20041;-78
2022/12/14 04:37:39;;;;;;;15.00;7.72;;;-4.20;99.90;;;;;;4968570;28;20035;-78
2022/12/14 04:40:06;;;;;;;15.77;8.07;;;-4.40;99.90;;;;;;4957351;28;20605;-78
2022/12/14 04:42:34;;;;;;;12.13;6.28;;;-4.30;99.90;;;;;;4970824;28;20038;-78
2022/12/14 04:45:07;;;;;;;16.65;7.43;;;-4.30;99.90;;;;;;4944072;28;20077;-78
2022/12/14 04:47:37;;;;;;;16.30;8.50;;;-4.20;99.90;;;;;;4985587;28;20030;-78
2022/12/14 04:50:12;;;;;;;16.75;8.57;;;-4.20;99.90;;;;;;4971169;28;20042;-77
2022/12/14 04:52:50;;;;;;;20.57;9.17;;;-4.40;99.90;;;;;;4954993;28;20092;-78
2022/12/14 04:55:50;;;;;;;34.85;14.80;;;-4.40;99.90;;;;;;4941374;28;20274;-78
2022/12/14 04:58:27;;;;;;;19.10;10.27;;;-4.50;99.90;;;;;;4962864;28;20030;-78
2022/12/14 05:01:21;;;;;;;21.60;10.82;;;-4.50;99.90;;;;;;4947734;28;20054;-78
2022/12/14 05:04:05;;;;;;;17.88;8.68;;;-4.50;99.90;;;;;;4975761;28;20026;-78
2022/12/14 05:06:36;;;;;;;17.52;8.75;;;-4.50;99.90;;;;;;4986044;28;20031;-78
2022/12/14 05:09:05;;;;;;;15.93;7.47;;;-4.40;99.90;;;;;;4985184;28;20121;-78
2022/12/14 05:11:35;;;;;;;19.50;8.75;;;-4.50;99.90;;;;;;4985889;28;20030;-78
2022/12/14 05:14:01;;;;;;;16.35;8.18;;;-4.40;99.90;;;;;;4985648;28;20027;-77
2022/12/14 05:16:27;;;;;;;17.02;7.72;;;-4.40;99.90;;;;;;4969442;28;20067;-77
2022/12/14 05:18:52;;;;;;;14.38;8.00;;;-4.50;99.90;;;;;;4987793;28;20048;-77
2022/12/14 05:24:02;;;;;;;16.92;8.85;;;-4.40;99.90;;;;;;4984107;28;20025;-78
2022/12/14 05:26:28;;;;;;;14.38;7.22;;;-4.40;99.90;;;;;;4985298;28;20022;-78
2022/12/14 05:28:54;;;;;;;16.60;7.60;;;-4.40;99.90;;;;;;4954182;28;20118;-78
2022/12/14 05:31:20;;;;;;;14.88;7.40;;;-4.40;99.90;;;;;;4985527;28;20137;-77
2022/12/14 05:33:45;;;;;;;15.45;7.65;;;-4.40;99.90;;;;;;4984754;28;20030;-78
2022/12/14 05:36:11;;;;;;;15.68;6.50;;;-4.40;99.90;;;;;;4986222;28;20030;-78
2022/12/14 05:38:36;;;;;;;16.25;7.70;;;-4.30;99.90;;;;;;4954758;28;20401;-78
2022/12/14 05:41:02;;;;;;;9.82;5.85;;;-4.20;99.90;;;;;;4987195;28;20062;-78
2022/12/14 05:43:27;;;;;;;12.77;6.32;;;-4.20;99.90;;;;;;4988782;28;20166;-78
2022/12/14 05:45:59;;;;;;;21.20;9.05;;;-4.20;99.90;;;;;;4984783;28;20038;-78
2022/12/14 05:48:25;;;;;;;17.17;10.05;;;-4.10;99.90;;;;;;4989547;28;20066;-78
2022/12/14 05:50:50;;;;;;;16.98;9.60;;;-4.40;99.90;;;;;;4952962;28;20108;-78
2022/12/14 05:53:17;;;;;;;18.92;9.30;;;-4.40;99.90;;;;;;4968682;28;20037;-78
2022/12/14 05:55:49;;;;;;;14.65;8.20;;;-4.50;99.90;;;;;;4971852;28;20056;-78
2022/12/14 05:58:15;;;;;;;11.93;7.10;;;-4.50;99.90;;;;;;4986758;28;20026;-77
2022/12/14 06:00:41;;;;;;;12.77;6.57;;;-4.40;99.90;;;;;;4961184;28;20689;-78
2022/12/14 06:03:06;;;;;;;14.07;6.80;;;-4.30;99.90;;;;;;4968688;28;20033;-78
2022/12/14 06:05:32;;;;;;;17.02;8.60;;;-4.10;99.90;;;;;;4989530;28;20112;-78
2022/12/14 06:07:57;;;;;;;16.38;8.48;;;-4.10;99.90;;;;;;4970583;28;20051;-78
2022/12/14 06:10:23;;;;;;;13.30;6.72;;;-4.30;99.90;;;;;;4969225;28;20034;-77
2022/12/14 06:12:48;;;;;;;17.30;8.43;;;-4.40;99.90;;;;;;4958633;28;20038;-78
2022/12/14 06:15:14;;;;;;;14.02;6.78;;;-4.30;99.90;;;;;;4956581;28;20026;-79
2022/12/14 06:17:43;;;;;;;13.98;7.40;;;-4.30;99.90;;;;;;4974459;28;21453;-78
2022/12/14 06:20:10;;;;;;;12.50;7.35;;;-4.20;99.90;;;;;;4955163;28;20030;-78
2022/12/14 06:22:35;;;;;;;17.02;7.63;;;-4.30;99.90;;;;;;4980595;28;20129;-78
2022/12/14 06:25:02;;;;;;;15.68;8.40;;;-4.40;99.90;;;;;;4958784;28;20514;-78
2022/12/14 06:27:28;;;;;;;17.60;8.10;;;-4.40;99.90;;;;;;4989514;28;20037;-78
2022/12/14 06:29:55;;;;;;;16.15;8.13;;;-4.50;99.90;;;;;;4987774;28;20434;-78
2022/12/14 06:32:21;;;;;;;17.58;9.10;;;-4.40;99.90;;;;;;4973940;28;20045;-77
2022/12/14 06:34:46;;;;;;;16.90;8.45;;;-4.40;99.90;;;;;;4941610;28;20031;-78
2022/12/14 06:37:12;;;;;;;14.52;7.47;;;-4.40;99.90;;;;;;4923386;28;20026;-78
2022/12/14 06:39:38;;;;;;;13.93;6.07;;;-4.40;99.90;;;;;;4969810;28;20066;-78
2022/12/14 06:42:04;;;;;;;15.02;6.93;;;-4.20;99.90;;;;;;4970167;28;20580;-78
2022/12/14 06:44:31;;;;;;;14.90;7.30;;;-4.20;99.90;;;;;;4952038;28;20417;-78
2022/12/14 06:46:56;;;;;;;14.35;6.82;;;-4.20;99.90;;;;;;4985671;28;20367;-78
2022/12/14 06:49:22;;;;;;;17.08;8.35;;;-4.00;99.90;;;;;;4987221;28;20041;-78
2022/12/14 06:51:47;;;;;;;15.38;8.38;;;-4.00;99.90;;;;;;4972668;28;20033;-79
2022/12/14 06:54:14;;;;;;;14.75;8.50;;;-4.10;99.90;;;;;;4971923;28;20062;-79
2022/12/14 06:56:42;;;;;;;11.65;7.20;;;-4.10;99.90;;;;;;4987282;28;20513;-79
2022/12/14 06:59:07;;;;;;;16.65;8.15;;;-4.30;99.90;;;;;;4987582;28;20034;-78
2022/12/14 07:01:33;;;;;;;12.10;7.15;;;-4.20;99.90;;;;;;4989402;28;20389;-79
2022/12/14 07:03:59;;;;;;;18.15;7.63;;;-4.30;99.90;;;;;;4956610;28;20744;-78
2022/12/14 07:06:26;;;;;;;11.30;6.20;;;-4.20;99.90;;;;;;4972061;28;20038;-80
2022/12/14 07:08:53;;;;;;;15.52;8.07;;;-4.20;99.90;;;;;;4965229;28;20038;-79
2022/12/14 07:11:18;;;;;;;16.48;7.35;;;-4.20;99.90;;;;;;4974495;28;20081;-79
2022/12/14 07:13:44;;;;;;;15.68;7.10;;;-4.20;99.90;;;;;;4989024;28;20667;-79
2022/12/14 07:16:20;;;;;;;16.05;7.45;;;-4.30;99.90;;;;;;4986437;28;20049;-79
2022/12/14 07:18:46;;;;;;;15.80;8.52;;;-4.20;99.90;;;;;;4971343;28;20065;-79
2022/12/14 07:21:12;;;;;;;15.32;7.35;;;-4.10;99.90;;;;;;4971657;28;20559;-79
2022/12/14 07:23:38;;;;;;;14.00;7.53;;;-4.20;99.90;;;;;;4988683;28;20026;-79
2022/12/14 07:26:06;;;;;;;12.45;6.45;;;-4.00;99.90;;;;;;4956802;28;20413;-79
2022/12/14 07:28:32;;;;;;;18.05;10.65;;;-4.00;99.90;;;;;;4985771;28;20502;-79
2022/12/14 07:30:58;;;;;;;15.75;7.20;;;-4.10;99.90;;;;;;4973814;28;20041;-79
2022/12/14 07:33:24;;;;;;;17.15;8.38;;;-4.10;99.90;;;;;;4956294;28;20081;-79
2022/12/14 07:35:49;;;;;;;16.25;8.13;;;-4.20;99.90;;;;;;4954962;28;20026;-79
2022/12/14 07:38:16;;;;;;;17.27;8.07;;;-4.20;99.90;;;;;;4989983;28;20022;-79
2022/12/14 07:40:42;;;;;;;13.95;8.00;;;-4.20;99.90;;;;;;4984625;28;20041;-79
2022/12/14 07:43:12;;;;;;;20.23;8.73;;;-4.20;99.90;;;;;;4990122;28;20038;-79
2022/12/14 07:45:38;;;;;;;11.30;6.75;;;-4.20;99.90;;;;;;4963257;28;20168;-79
2022/12/14 07:48:05;;;;;;;13.52;6.75;;;-4.10;99.90;;;;;;4973532;28;20472;-79
2022/12/14 07:50:31;;;;;;;16.35;8.15;;;-3.90;99.90;;;;;;4982497;28;20030;-80
2022/12/14 07:52:57;;;;;;;16.33;8.50;;;-4.00;99.90;;;;;;4970228;28;20034;-80
2022/12/14 07:55:26;;;;;;;16.45;8.15;;;-4.10;99.90;;;;;;4961195;28;20031;-80
2022/12/14 07:57:51;;;;;;;15.07;8.40;;;-4.20;99.90;;;;;;4956128;28;20038;-79
2022/12/14 08:00:17;;;;;;;15.30;7.60;;;-4.20;99.90;;;;;;4970759;28;20085;-79
2022/12/14 08:02:43;;;;;;;14.10;7.05;;;-4.20;99.90;;;;;;4970353;28;20040;-79
2022/12/14 08:05:10;;;;;;;13.63;7.53;;;-4.10;99.90;;;;;;4970585;28;20033;-79
2022/12/14 08:07:35;;;;;;;18.20;8.25;;;-4.00;99.90;;;;;;4971068;28;20064;-79
2022/12/14 08:10:01;;;;;;;15.70;8.13;;;-3.90;99.90;;;;;;4972655;28;20046;-79
2022/12/14 08:12:27;;;;;;;18.85;7.97;;;-3.90;99.90;;;;;;4986636;28;20498;-79
2022/12/14 08:14:53;;;;;;;17.33;8.10;;;-3.90;99.90;;;;;;4969158;28;20034;-80
2022/12/14 08:17:19;;;;;;;13.80;7.80;;;-3.90;99.90;;;;;;4970279;28;20110;-79
2022/12/14 08:19:44;;;;;;;14.43;7.47;;;-3.80;99.90;;;;;;4988389;28;20092;-79
2022/12/14 08:22:11;;;;;;;16.80;8.60;;;-3.90;99.90;;;;;;4990312;28;20125;-79
2022/12/14 08:24:36;;;;;;;17.17;7.90;;;-3.80;99.90;;;;;;4969735;28;20109;-79
2022/12/14 08:27:02;;;;;;;14.38;7.90;;;-3.90;99.90;;;;;;4938025;28;20126;-79
2022/12/14 08:29:27;;;;;;;14.77;7.80;;;-3.80;99.90;;;;;;4969088;28;20085;-79
2022/12/14 08:31:56;;;;;;;17.17;8.85;;;-3.90;99.90;;;;;;4986626;28;20111;-80
2022/12/14 08:34:22;;;;;;;17.92;9.35;;;-3.90;99.90;;;;;;4969526;28;20113;-79
2022/12/14 08:36:48;;;;;;;16.52;9.93;;;-3.80;99.90;;;;;;4955964;28;20034;-79
2022/12/14 08:39:14;;;;;;;20.33;10.40;;;-3.80;99.90;;;;;;4969579;28;20034;-79
2022/12/14 08:41:40;;;;;;;23.95;10.68;;;-3.80;99.90;;;;;;4953598;28;20039;-79
2022/12/14 08:44:05;;;;;;;19.73;9.52;;;-3.70;99.90;;;;;;4969800;28;20065;-79
2022/12/14 08:46:32;;;;;;;17.75;9.10;;;-3.60;99.90;;;;;;4970310;28;20049;-80
2022/12/14 08:48:58;;;;;;;23.65;8.30;;;-3.50;99.90;;;;;;4969658;28;20030;-79
2022/12/14 08:51:24;;;;;;;20.10;9.52;;;-3.60;99.90;;;;;;4969674;28;20018;-80
2022/12/14 08:53:50;;;;;;;16.85;8.68;;;-3.50;99.90;;;;;;4985891;28;20030;-79
2022/12/14 08:56:17;;;;;;;17.30;8.70;;;-3.50;99.90;;;;;;4984506;28;20046;-79
2022/12/14 08:58:42;;;;;;;15.68;8.85;;;-3.40;99.90;;;;;;4970662;28;20050;-79
2022/12/14 09:01:12;;;;;;;18.52;10.02;;;-3.40;99.90;;;;;;4937729;28;20054;-80
2022/12/14 09:03:43;;;;;;;16.33;7.88;;;-3.40;99.90;;;;;;4968501;28;20042;-79
2022/12/14 09:06:10;;;;;;;18.80;8.30;;;-3.20;99.90;;;;;;4978729;28;20093;-79
2022/12/14 09:08:35;;;;;;;19.67;9.30;;;-3.20;99.90;;;;;;4970684;28;20034;-79
2022/12/14 09:11:01;;;;;;;17.08;9.05;;;-3.30;99.90;;;;;;4952923;28;20026;-79
2022/12/14 09:13:27;;;;;;;18.52;8.85;;;-3.30;99.90;;;;;;4954732;28;20026;-79
2022/12/14 09:16:03;;;;;;;16.67;8.43;;;-3.30;99.90;;;;;;4966303;28;20034;-79
2022/12/14 09:18:29;;;;;;;;;;;-3.30;99.90;;;;;;4983165;28;20398;-80
2022/12/14 09:20:54;;;;;;;22.17;8.97;;;-3.20;99.90;;;;;;4984639;28;19909;-79
2022/12/14 09:23:22;;;;;;;22.73;9.63;;;-3.20;99.90;;;;;;4983501;28;20283;-80
2022/12/14 09:25:57;;;;;;;19.73;9.85;;;-3.10;99.90;;;;;;4937650;28;20034;-80
2022/12/14 09:28:23;;;;;;;26.00;10.32;;;-3.10;99.90;;;;;;4968048;28;20034;-80
2022/12/14 09:30:54;;;;;;;23.63;10.05;;;-3.00;99.90;;;;;;4971088;28;20038;-79
2022/12/14 09:33:19;;;;;;;23.88;11.02;;;-3.00;99.90;;;;;;4954862;28;20406;-79
2022/12/14 09:35:45;;;;;;;19.48;11.25;;;-3.00;99.90;;;;;;4956307;28;20031;-80
2022/12/14 09:38:10;;;;;;;25.77;11.02;;;-3.00;99.90;;;;;;4968937;28;20279;-80
2022/12/14 09:40:36;;;;;;;18.85;10.00;;;-3.00;99.90;;;;;;4969738;28;20109;-79
2022/12/14 09:43:03;;;;;;;22.13;11.70;;;-2.90;99.90;;;;;;4952941;28;20538;-80
2022/12/14 09:45:32;;;;;;;18.10;9.60;;;-2.90;99.90;;;;;;4972800;28;20040;-80
2022/12/14 09:48:03;;;;;;;19.55;10.38;;;-2.90;99.90;;;;;;4970860;28;20061;-80
2022/12/14 09:50:29;;;;;;;21.20;10.05;;;-2.90;99.90;;;;;;4983598;28;20511;-80
2022/12/14 09:53:04;;;;;;;20.58;10.07;;;-2.80;99.90;;;;;;4970871;28;20026;-80
2022/12/14 09:55:37;;;;;;;20.77;9.83;;;-2.80;99.90;;;;;;4971094;28;20486;-80
2022/12/14 09:58:14;;;;;;;20.05;9.98;;;-2.80;99.90;;;;;;4964153;28;20471;-80
2022/12/14 10:00:51;;;;;;;23.95;9.45;;;-2.80;99.90;;;;;;4983091;28;20066;-79
2022/12/14 10:03:51;;;;;;;19.52;10.55;;;-2.80;99.90;;;;;;4955220;28;20188;-80
2022/12/14 10:06:20;;;;;;;20.95;8.75;;;-2.90;99.90;;;;;;4972809;28;20088;-80
2022/12/14 10:09:09;;;;;;;10.90;5.93;;;-2.80;99.90;;;;;;4986529;28;20041;-80
2022/12/14 10:11:55;;;;;;;16.52;6.55;;;-2.70;99.90;;;;;;4956252;28;20066;-80
2022/12/14 10:14:44;;;;;;;20.42;9.07;;;-2.50;99.90;;;;;;4983738;28;20490;-80
2022/12/14 10:17:34;;;;;;;25.48;9.55;;;-2.40;99.90;;;;;;4955654;28;20030;-79
2022/12/14 10:20:16;;;;;;;21.38;9.27;;;-2.60;99.90;;;;;;4984609;28;20031;-80
2022/12/14 10:22:44;;;;;;;16.48;7.38;;;-2.60;99.90;;;;;;4967588;28;20038;-80
2022/12/14 10:25:22;;;;;;;15.65;8.05;;;-2.70;99.90;;;;;;4975653;28;20040;-80
2022/12/14 10:28:04;;;;;;;20.10;9.25;;;-2.70;99.90;;;;;;4984275;28;20054;-80
2022/12/14 10:30:30;;;;;;;20.23;9.63;;;-2.70;99.90;;;;;;4953380;28;20033;-79
2022/12/14 10:33:02;;;;;;;18.65;9.05;;;-2.70;99.90;;;;;;4953693;28;20039;-79
2022/12/14 10:35:30;;;;;;;27.40;9.93;;;-2.60;99.90;;;;;;4985628;28;20041;-80
2022/12/14 10:38:15;;;;;;;23.15;10.20;;;-2.70;99.90;;;;;;4969224;28;20509;-78
2022/12/14 10:40:48;;;;;;;25.63;9.18;;;-2.70;99.90;;;;;;4983660;28;20498;-79
2022/12/14 10:43:23;;;;;;;28.17;9.90;;;-2.60;99.90;;;;;;4968924;28;20049;-79
2022/12/14 10:46:11;;;;;;;14.00;7.33;;;-2.70;99.90;;;;;;4969365;28;20034;-81
2022/12/14 10:49:03;;;;;;;23.52;10.13;;;-2.40;99.90;;;;;;4982681;28;20059;-79
2022/12/14 10:52:01;;;;;;;19.23;10.60;;;-2.40;99.90;;;;;;4984168;28;20030;-80
2022/12/14 10:55:00;;;;;;;19.00;9.55;;;-2.20;99.90;;;;;;4967554;28;20030;-80
2022/12/14 10:57:26;;;;;;;24.92;11.13;;;-2.20;99.90;;;;;;4904318;28;20019;-80
2022/12/14 10:59:52;;;;;;;19.63;9.98;;;-2.20;99.90;;;;;;4951981;28;20039;-80
2022/12/14 11:02:26;;;;;;;16.88;8.38;;;-2.10;99.90;;;;;;4971956;28;20065;-80
2022/12/14 11:04:58;;;;;;;19.85;8.93;;;-2.10;99.90;;;;;;4956211;28;20122;-80
2022/12/14 11:07:36;;;;;;;20.75;9.60;;;-1.90;99.90;;;;;;4971779;28;20042;-80
2022/12/14 11:10:23;;;;;;;13.40;6.85;;;-1.80;99.90;;;;;;4986278;28;20074;-78
2022/12/14 11:12:54;;;;;;;13.13;7.03;;;-1.80;99.90;;;;;;4988512;28;20027;-80
2022/12/14 11:15:27;;;;;;;18.27;9.00;;;-1.60;99.90;;;;;;4971653;28;20498;-80
2022/12/14 11:18:14;;;;;;;15.10;6.10;;;-1.50;99.90;;;;;;4965883;28;20030;-80
2022/12/14 11:20:56;;;;;;;20.48;11.65;;;-1.40;99.90;;;;;;4984062;28;20045;-81
2022/12/14 11:23:28;;;;;;;22.25;12.07;;;-1.40;99.90;;;;;;4971041;28;20390;-80
2022/12/14 11:25:58;;;;;;;23.13;11.90;;;-1.40;99.90;;;;;;4992162;28;20030;-81
2022/12/14 11:28:38;;;;;;;21.85;12.52;;;-1.40;99.90;;;;;;4971967;28;20031;-81
2022/12/14 11:31:07;;;;;;;18.13;9.82;;;-1.40;99.90;;;;;;4961807;28;20034;-78
2022/12/14 11:33:45;;;;;;;20.55;10.88;;;-1.40;99.90;;;;;;4990359;28;20029;-78
2022/12/14 11:36:21;;;;;;;22.63;12.13;;;-1.30;99.90;;;;;;4985509;28;20046;-78
2022/12/14 11:38:54;;;;;;;23.63;12.00;;;-1.20;99.90;;;;;;4990705;28;20123;-78
2022/12/14 11:41:20;;;;;;;20.95;11.23;;;-1.20;99.90;;;;;;4985482;28;20065;-78
2022/12/14 11:43:46;;;;;;;19.60;10.65;;;-1.10;99.90;;;;;;4956074;28;20023;-78
2022/12/14 11:46:11;;;;;;;26.35;12.75;;;-1.00;99.90;;;;;;4971634;28;20030;-78
2022/12/14 11:48:38;;;;;;;18.67;10.65;;;-1.00;99.90;;;;;;4969946;28;20019;-78
2022/12/14 11:51:11;;;;;;;25.55;12.75;;;-1.00;99.90;;;;;;4972414;28;20014;-78
2022/12/14 11:53:39;;;;;;;21.02;11.07;;;-0.90;99.90;;;;;;4953291;28;20830;-78
2022/12/14 11:56:07;;;;;;;25.63;11.20;;;-0.90;99.90;;;;;;4941760;28;20100;-78
2022/12/14 11:58:35;;;;;;;27.13;13.48;;;-0.80;99.90;;;;;;4956046;28;20045;-78
2022/12/14 12:01:32;;;;;;;27.38;13.40;;;-0.80;99.90;;;;;;4964591;28;20080;-78
2022/12/14 12:03:58;;;;;;;32.83;14.07;;;-0.70;99.90;;;;;;4984851;28;20493;-79
2022/12/14 12:06:24;;;;;;;25.88;13.15;;;-0.70;99.90;;;;;;4986590;28;20046;-78
2022/12/14 12:08:58;;;;;;;27.92;14.02;;;-0.80;99.90;;;;;;4951723;28;20684;-78
2022/12/14 12:11:26;;;;;;;25.80;12.45;;;-0.70;99.90;;;;;;4988068;28;20058;-79
2022/12/14 12:13:57;;;;;;;25.15;12.82;;;-0.70;99.90;;;;;;4970678;28;20030;-79
2022/12/14 12:16:24;;;;;;;23.25;13.32;;;-0.70;99.90;;;;;;4971874;28;20081;-78
2022/12/14 12:18:55;;;;;;;23.63;12.38;;;-0.70;99.90;;;;;;4969998;28;20034;-78
2022/12/14 12:21:25;;;;;;;26.90;13.30;;;-0.70;99.90;;;;;;4953375;28;20470;-78
2022/12/14 12:23:58;;;;;;;25.98;12.93;;;-0.70;99.90;;;;;;4974307;28;20522;-78
2022/12/14 12:26:38;;;;;;;22.45;11.73;;;-0.80;99.90;;;;;;4955119;28;20034;-79
2022/12/14 12:29:16;;;;;;;22.90;11.18;;;-0.80;99.90;;;;;;4982647;28;20054;-78
2022/12/14 12:31:58;;;;;;;18.90;11.10;;;-0.80;99.90;;;;;;4986648;28;20034;-78
2022/12/14 12:34:42;;;;;;;13.23;6.75;;;-0.90;99.90;;;;;;4987608;28;20104;-78
2022/12/14 12:37:12;;;;;;;21.15;8.23;;;-0.70;99.90;;;;;;4970496;28;20028;-79
2022/12/14 12:39:50;;;;;;;18.00;9.85;;;-0.60;99.90;;;;;;4971507;28;20118;-79
2022/12/14 12:42:33;;;;;;;17.38;10.13;;;-0.40;99.90;;;;;;4953652;28;20398;-79
2022/12/14 12:45:00;;;;;;;19.67;12.05;;;-0.40;99.90;;;;;;4987249;28;20034;-78
2022/12/14 12:47:31;;;;;;;20.17;10.43;;;-0.50;99.90;;;;;;4987732;28;20107;-79
2022/12/14 12:50:06;;;;;;;15.57;8.07;;;-0.60;99.90;;;;;;4971951;28;20034;-79
2022/12/14 12:52:38;;;;;;;18.17;7.60;;;-0.30;99.90;;;;;;4959748;28;20042;-79
2022/12/14 12:55:17;;;;;;;12.55;7.45;;;0.10;99.90;;;;;;4977731;28;20096;-78
2022/12/14 12:57:44;;;;;;;18.30;8.98;;;0.30;99.90;;;;;;4956198;28;20038;-78
2022/12/14 13:00:17;;;;;;;13.75;8.35;;;-0.20;99.90;;;;;;4971519;28;20039;-79
2022/12/14 13:02:48;;;;;;;13.93;8.35;;;0.00;99.90;;;;;;4961703;28;20073;-79
2022/12/14 13:05:16;;;;;;;19.98;10.27;;;0.20;99.90;;;;;;4955616;28;20041;-80